sensor_id;sensor_type;location;lat;lon;timestamp;temperature;humidity
18309;DHT22;9280;50.276;18.650;2022-07-05T00:02:10;20.20;99.90
18309;DHT22;9280;50.276;18.650;2022-07-05T00:04:56;20.20;99.90
18309;DHT22;9280;50.276;18.650;2022-07-05T00:07:42;20.20;99.90
18309;DHT22;9280;50.276;18.650;2022-07-05T00:10:28;20.20;99.90
18309;DHT22;9280;50.276;18.650;2022-07-05T00:13:14;20.30;99.90
18309;DHT22;9280;50.276;18.650;2022-07-05T00:16:02;20.20;99.90
18309;DHT22;9280;50.276;18.650;2022-07-05T00:18:48;20.20;99.90
18309;DHT22;9280;50.276;18.650;2022-07-05T00:21:34;20.10;99.90
18309;DHT22;9280;50.276;18.650;2022-07-05T00:24:19;20.10;99.90
18309;DHT22;9280;50.276;18.650;2022-07-05T00:27:06;20.10;99.90
18309;DHT22;9280;50.276;18.650;2022-07-05T00:29:51;20.10;99.90
18309;DHT22;9280;50.276;18.650;2022-07-05T00:32:39;20.10;99.90
18309;DHT22;9280;50.276;18.650;2022-07-05T00:35:25;20.20;99.90
18309;DHT22;9280;50.276;18.650;2022-07-05T00:38:12;20.30;99.90
18309;DHT22;9280;50.276;18.650;2022-07-05T00:40:57;20.40;99.90
18309;DHT22;9280;50.276;18.650;2022-07-05T00:43:52;20.30;99.90
18309;DHT22;9280;50.276;18.650;2022-07-05T00:46:38;20.30;99.90
18309;DHT22;9280;50.276;18.650;2022-07-05T00:49:26;20.30;99.90
18309;DHT22;9280;50.276;18.650;2022-07-05T00:52:12;20.30;99.90
18309;DHT22;9280;50.276;18.650;2022-07-05T00:54:58;20.30;99.90
18309;DHT22;9280;50.276;18.650;2022-07-05T00:57:44;20.30;99.90
18309;DHT22;9280;50.276;18.650;2022-07-05T01:00:30;20.30;99.90
18309;DHT22;9280;50.276;18.650;2022-07-05T01:03:17;20.40;99.90
18309;DHT22;9280;50.276;18.650;2022-07-05T01:06:06;20.40;99.90
18309;DHT22;9280;50.276;18.650;2022-07-05T01:08:53;20.30;99.90
18309;DHT22;9280;50.276;18.650;2022-07-05T01:11:39;20.30;99.90
18309;DHT22;9280;50.276;18.650;2022-07-05T01:14:26;20.30;99.90
18309;DHT22;9280;50.276;18.650;2022-07-05T01:17:12;20.40;99.90
18309;DHT22;9280;50.276;18.650;2022-07-05T01:19:58;20.30;99.90
18309;DHT22;9280;50.276;18.650;2022-07-05T01:22:53;20.20;99.90
18309;DHT22;9280;50.276;18.650;2022-07-05T01:25:39;20.20;99.90
18309;DHT22;9280;50.276;18.650;2022-07-05T01:28:26;20.20;99.90
18309;DHT22;9280;50.276;18.650;2022-07-05T01:31:12;20.20;99.90
18309;DHT22;9280;50.276;18.650;2022-07-05T01:33:58;20.20;99.90
18309;DHT22;9280;50.276;18.650;2022-07-05T01:36:44;20.00;99.90
18309;DHT22;9280;50.276;18.650;2022-07-05T01:39:32;19.90;99.90
18309;DHT22;9280;50.276;18.650;2022-07-05T01:42:18;19.80;99.90
18309;DHT22;9280;50.276;18.650;2022-07-05T01:45:05;19.70;99.90
18309;DHT22;9280;50.276;18.650;2022-07-05T01:47:51;19.60;99.90
18309;DHT22;9280;50.276;18.650;2022-07-05T01:50:41;19.50;99.90
18309;DHT22;9280;50.276;18.650;2022-07-05T01:53:28;19.40;99.90
18309;DHT22;9280;50.276;18.650;2022-07-05T01:56:16;19.40;99.90
18309;DHT22;9280;50.276;18.650;2022-07-05T01:59:02;19.30;99.90
18309;DHT22;9280;50.276;18.650;2022-07-05T02:01:48;19.30;99.90
18309;DHT22;9280;50.276;18.650;2022-07-05T02:04:35;19.20;99.90
18309;DHT22;9280;50.276;18.650;2022-07-05T02:07:24;19.20;99.90
18309;DHT22;9280;50.276;18.650;2022-07-05T02:10:10;19.10;99.90
18309;DHT22;9280;50.276;18.650;2022-07-05T02:12:57;18.90;99.90
18309;DHT22;9280;50.276;18.650;2022-07-05T02:15:44;18.90;99.90
18309;DHT22;9280;50.276;18.650;2022-07-05T02:18:30;18.80;99.90
18309;DHT22;9280;50.276;18.650;2022-07-05T02:21:16;18.70;99.90
18309;DHT22;9280;50.276;18.650;2022-07-05T02:24:04;18.70;99.90
18309;DHT22;9280;50.276;18.650;2022-07-05T02:26:56;18.70;99.90
18309;DHT22;9280;50.276;18.650;2022-07-05T02:29:44;18.70;99.90
18309;DHT22;9280;50.276;18.650;2022-07-05T02:32:31;18.70;99.90
18309;DHT22;9280;50.276;18.650;2022-07-05T02:35:18;18.60;99.90
18309;DHT22;9280;50.276;18.650;2022-07-05T02:38:05;18.50;99.90
18309;DHT22;9280;50.276;18.650;2022-07-05T02:40:51;18.40;99.90
18309;DHT22;9280;50.276;18.650;2022-07-05T02:43:38;18.50;99.90
18309;DHT22;9280;50.276;18.650;2022-07-05T02:46:28;18.40;99.90
18309;DHT22;9280;50.276;18.650;2022-07-05T02:49:17;18.60;99.90
18309;DHT22;9280;50.276;18.650;2022-07-05T02:52:04;18.70;99.90
18309;DHT22;9280;50.276;18.650;2022-07-05T02:54:51;18.80;99.90
18309;DHT22;9280;50.276;18.650;2022-07-05T02:57:38;18.80;99.90
18309;DHT22;9280;50.276;18.650;2022-07-05T03:00:26;18.80;99.90
18309;DHT22;9280;50.276;18.650;2022-07-05T03:03:14;18.90;99.90
18309;DHT22;9280;50.276;18.650;2022-07-05T03:06:00;19.00;99.90
18309;DHT22;9280;50.276;18.650;2022-07-05T03:08:49;19.00;99.90
18309;DHT22;9280;50.276;18.650;2022-07-05T03:11:35;19.20;99.90
18309;DHT22;9280;50.276;18.650;2022-07-05T03:14:22;19.20;99.90
18309;DHT22;9280;50.276;18.650;2022-07-05T03:17:09;19.30;99.90
18309;DHT22;9280;50.276;18.650;2022-07-05T03:19:57;19.40;99.90
18309;DHT22;9280;50.276;18.650;2022-07-05T03:22:44;19.40;99.90
18309;DHT22;9280;50.276;18.650;2022-07-05T03:25:32;19.50;99.90
18309;DHT22;9280;50.276;18.650;2022-07-05T03:28:20;19.20;99.90
18309;DHT22;9280;50.276;18.650;2022-07-05T03:31:09;18.90;99.90
18309;DHT22;9280;50.276;18.650;2022-07-05T03:33:59;18.80;99.90
18309;DHT22;9280;50.276;18.650;2022-07-05T03:36:46;18.70;99.90
18309;DHT22;9280;50.276;18.650;2022-07-05T03:39:35;18.60;99.90
18309;DHT22;9280;50.276;18.650;2022-07-05T03:42:22;18.60;99.90
18309;DHT22;9280;50.276;18.650;2022-07-05T03:45:10;18.60;99.90
18309;DHT22;9280;50.276;18.650;2022-07-05T03:47:57;18.50;99.90
18309;DHT22;9280;50.276;18.650;2022-07-05T03:50:44;18.40;99.90
18309;DHT22;9280;50.276;18.650;2022-07-05T03:53:32;18.30;99.90
18309;DHT22;9280;50.276;18.650;2022-07-05T03:56:20;18.30;99.90
18309;DHT22;9280;50.276;18.650;2022-07-05T03:59:09;18.20;99.90
18309;DHT22;9280;50.276;18.650;2022-07-05T04:01:55;18.10;99.90
18309;DHT22;9280;50.276;18.650;2022-07-05T04:04:41;18.20;99.90
18309;DHT22;9280;50.276;18.650;2022-07-05T04:07:27;18.10;99.90
18309;DHT22;9280;50.276;18.650;2022-07-05T04:10:15;18.20;99.90
18309;DHT22;9280;50.276;18.650;2022-07-05T04:13:01;18.20;99.90
18309;DHT22;9280;50.276;18.650;2022-07-05T04:15:48;18.20;99.90
18309;DHT22;9280;50.276;18.650;2022-07-05T04:18:35;18.10;99.90
18309;DHT22;9280;50.276;18.650;2022-07-05T04:21:22;18.00;99.90
18309;DHT22;9280;50.276;18.650;2022-07-05T04:24:08;18.00;99.90
18309;DHT22;9280;50.276;18.650;2022-07-05T04:26:56;18.20;99.90
18309;DHT22;9280;50.276;18.650;2022-07-05T04:29:44;18.30;99.90
18309;DHT22;9280;50.276;18.650;2022-07-05T04:32:30;18.40;99.90
18309;DHT22;9280;50.276;18.650;2022-07-05T04:35:16;18.60;99.90
18309;DHT22;9280;50.276;18.650;2022-07-05T04:38:05;18.70;99.90
18309;DHT22;9280;50.276;18.650;2022-07-05T04:40:54;18.80;99.90
18309;DHT22;9280;50.276;18.650;2022-07-05T04:43:42;19.00;99.90
18309;DHT22;9280;50.276;18.650;2022-07-05T04:46:31;19.10;99.90
18309;DHT22;9280;50.276;18.650;2022-07-05T04:49:17;19.10;99.90
18309;DHT22;9280;50.276;18.650;2022-07-05T04:52:04;19.00;99.90
18309;DHT22;9280;50.276;18.650;2022-07-05T04:54:52;18.90;99.90
18309;DHT22;9280;50.276;18.650;2022-07-05T04:57:38;18.90;99.90
18309;DHT22;9280;50.276;18.650;2022-07-05T05:00:25;18.70;99.90
18309;DHT22;9280;50.276;18.650;2022-07-05T05:03:11;18.50;99.90
18309;DHT22;9280;50.276;18.650;2022-07-05T05:05:57;18.50;99.90
18309;DHT22;9280;50.276;18.650;2022-07-05T05:08:43;18.80;99.90
18309;DHT22;9280;50.276;18.650;2022-07-05T05:11:29;19.00;99.90
18309;DHT22;9280;50.276;18.650;2022-07-05T05:14:15;19.10;99.90
18309;DHT22;9280;50.276;18.650;2022-07-05T05:17:03;19.30;99.90
18309;DHT22;9280;50.276;18.650;2022-07-05T05:19:49;19.40;99.90
18309;DHT22;9280;50.276;18.650;2022-07-05T05:22:35;19.20;99.90
18309;DHT22;9280;50.276;18.650;2022-07-05T05:25:21;19.10;99.90
18309;DHT22;9280;50.276;18.650;2022-07-05T05:28:07;19.30;99.90
18309;DHT22;9280;50.276;18.650;2022-07-05T05:30:52;19.30;99.90
18309;DHT22;9280;50.276;18.650;2022-07-05T05:33:40;19.30;99.90
18309;DHT22;9280;50.276;18.650;2022-07-05T05:36:26;19.30;99.90
18309;DHT22;9280;50.276;18.650;2022-07-05T05:39:12;19.20;99.90
18309;DHT22;9280;50.276;18.650;2022-07-05T05:41:58;19.40;99.90
18309;DHT22;9280;50.276;18.650;2022-07-05T05:44:44;19.50;99.90
18309;DHT22;9280;50.276;18.650;2022-07-05T05:47:30;19.30;99.90
18309;DHT22;9280;50.276;18.650;2022-07-05T05:50:21;19.40;99.90
18309;DHT22;9280;50.276;18.650;2022-07-05T05:53:08;19.40;99.90
18309;DHT22;9280;50.276;18.650;2022-07-05T05:55:54;19.50;99.90
18309;DHT22;9280;50.276;18.650;2022-07-05T05:58:40;19.50;99.90
18309;DHT22;9280;50.276;18.650;2022-07-05T06:01:26;19.50;99.90
18309;DHT22;9280;50.276;18.650;2022-07-05T06:04:12;19.60;99.90
18309;DHT22;9280;50.276;18.650;2022-07-05T06:07:00;19.80;99.90
18309;DHT22;9280;50.276;18.650;2022-07-05T06:09:46;19.90;99.90
18309;DHT22;9280;50.276;18.650;2022-07-05T06:12:31;20.10;99.90
18309;DHT22;9280;50.276;18.650;2022-07-05T06:15:18;20.40;99.90
18309;DHT22;9280;50.276;18.650;2022-07-05T06:18:04;20.60;99.90
18309;DHT22;9280;50.276;18.650;2022-07-05T06:20:50;20.70;99.90
18309;DHT22;9280;50.276;18.650;2022-07-05T06:23:38;20.90;99.90
18309;DHT22;9280;50.276;18.650;2022-07-05T06:26:24;21.00;99.90
18309;DHT22;9280;50.276;18.650;2022-07-05T06:29:10;21.20;99.90
18309;DHT22;9280;50.276;18.650;2022-07-05T06:31:56;21.20;99.90
18309;DHT22;9280;50.276;18.650;2022-07-05T06:34:44;21.40;99.90
18309;DHT22;9280;50.276;18.650;2022-07-05T06:37:40;21.60;99.90
18309;DHT22;9280;50.276;18.650;2022-07-05T06:40:31;21.80;99.90
18309;DHT22;9280;50.276;18.650;2022-07-05T06:43:17;21.70;99.90
18309;DHT22;9280;50.276;18.650;2022-07-05T06:46:13;21.70;99.90
18309;DHT22;9280;50.276;18.650;2022-07-05T06:48:58;21.90;99.90
18309;DHT22;9280;50.276;18.650;2022-07-05T06:51:44;21.90;99.90
18309;DHT22;9280;50.276;18.650;2022-07-05T06:54:30;21.90;99.90
18309;DHT22;9280;50.276;18.650;2022-07-05T06:57:20;22.20;99.90
18309;DHT22;9280;50.276;18.650;2022-07-05T07:00:06;22.30;99.90
18309;DHT22;9280;50.276;18.650;2022-07-05T07:02:56;22.60;99.90
18309;DHT22;9280;50.276;18.650;2022-07-05T07:05:42;22.90;99.90
18309;DHT22;9280;50.276;18.650;2022-07-05T07:08:28;22.90;99.90
18309;DHT22;9280;50.276;18.650;2022-07-05T07:11:45;23.00;99.90
18309;DHT22;9280;50.276;18.650;2022-07-05T07:14:33;23.10;99.90
18309;DHT22;9280;50.276;18.650;2022-07-05T07:17:19;23.00;99.90
18309;DHT22;9280;50.276;18.650;2022-07-05T07:20:05;22.60;99.90
18309;DHT22;9280;50.276;18.650;2022-07-05T07:22:52;22.40;99.90
18309;DHT22;9280;50.276;18.650;2022-07-05T07:25:38;22.20;99.90
18309;DHT22;9280;50.276;18.650;2022-07-05T07:28:24;22.20;99.90
18309;DHT22;9280;50.276;18.650;2022-07-05T07:31:12;22.20;99.90
18309;DHT22;9280;50.276;18.650;2022-07-05T07:33:58;22.00;99.90
18309;DHT22;9280;50.276;18.650;2022-07-05T07:36:47;21.80;99.90
18309;DHT22;9280;50.276;18.650;2022-07-05T07:39:33;21.50;99.90
18309;DHT22;9280;50.276;18.650;2022-07-05T07:42:19;21.20;99.90
18309;DHT22;9280;50.276;18.650;2022-07-05T07:45:06;21.10;99.90
18309;DHT22;9280;50.276;18.650;2022-07-05T07:47:54;20.90;99.90
18309;DHT22;9280;50.276;18.650;2022-07-05T07:50:40;20.70;99.90
18309;DHT22;9280;50.276;18.650;2022-07-05T07:53:26;20.60;99.90
18309;DHT22;9280;50.276;18.650;2022-07-05T07:56:12;20.70;99.90
18309;DHT22;9280;50.276;18.650;2022-07-05T07:59:01;20.70;99.90
18309;DHT22;9280;50.276;18.650;2022-07-05T08:01:47;20.70;99.90
18309;DHT22;9280;50.276;18.650;2022-07-05T08:04:34;20.80;99.90
18309;DHT22;9280;50.276;18.650;2022-07-05T08:07:20;20.90;99.90
18309;DHT22;9280;50.276;18.650;2022-07-05T08:10:08;21.00;99.90
18309;DHT22;9280;50.276;18.650;2022-07-05T08:12:54;21.10;99.90
18309;DHT22;9280;50.276;18.650;2022-07-05T08:15:40;21.10;99.90
18309;DHT22;9280;50.276;18.650;2022-07-05T08:18:26;21.20;99.90
18309;DHT22;9280;50.276;18.650;2022-07-05T08:21:31;21.30;99.90
18309;DHT22;9280;50.276;18.650;2022-07-05T08:24:17;21.30;99.90
18309;DHT22;9280;50.276;18.650;2022-07-05T08:27:03;21.30;99.90
18309;DHT22;9280;50.276;18.650;2022-07-05T08:29:49;21.40;99.90
18309;DHT22;9280;50.276;18.650;2022-07-05T08:32:35;21.40;99.90
18309;DHT22;9280;50.276;18.650;2022-07-05T08:35:21;21.40;99.90
18309;DHT22;9280;50.276;18.650;2022-07-05T08:38:09;21.50;99.90
18309;DHT22;9280;50.276;18.650;2022-07-05T08:40:57;21.60;99.90
18309;DHT22;9280;50.276;18.650;2022-07-05T08:43:47;21.60;99.90
18309;DHT22;9280;50.276;18.650;2022-07-05T08:46:38;21.80;99.90
18309;DHT22;9280;50.276;18.650;2022-07-05T08:49:25;22.00;99.90
18309;DHT22;9280;50.276;18.650;2022-07-05T08:52:12;22.00;99.90
18309;DHT22;9280;50.276;18.650;2022-07-05T08:55:00;22.10;99.90
18309;DHT22;9280;50.276;18.650;2022-07-05T08:57:46;22.10;99.90
18309;DHT22;9280;50.276;18.650;2022-07-05T09:00:33;22.10;99.90
18309;DHT22;9280;50.276;18.650;2022-07-05T09:03:21;22.20;99.90
18309;DHT22;9280;50.276;18.650;2022-07-05T09:06:13;22.00;99.90
18309;DHT22;9280;50.276;18.650;2022-07-05T09:08:59;22.20;99.90
18309;DHT22;9280;50.276;18.650;2022-07-05T09:11:47;22.40;99.90
18309;DHT22;9280;50.276;18.650;2022-07-05T09:14:34;22.50;99.90
18309;DHT22;9280;50.276;18.650;2022-07-05T09:17:20;22.60;99.90
18309;DHT22;9280;50.276;18.650;2022-07-05T09:20:08;22.70;99.90
18309;DHT22;9280;50.276;18.650;2022-07-05T09:22:55;22.60;99.90
18309;DHT22;9280;50.276;18.650;2022-07-05T09:25:42;22.20;99.90
18309;DHT22;9280;50.276;18.650;2022-07-05T09:28:29;22.30;99.90
18309;DHT22;9280;50.276;18.650;2022-07-05T09:31:25;22.40;99.90
18309;DHT22;9280;50.276;18.650;2022-07-05T09:34:13;22.60;99.90
18309;DHT22;9280;50.276;18.650;2022-07-05T09:37:00;22.70;99.90
18309;DHT22;9280;50.276;18.650;2022-07-05T09:39:47;22.90;99.90
18309;DHT22;9280;50.276;18.650;2022-07-05T09:42:33;23.10;99.90
18309;DHT22;9280;50.276;18.650;2022-07-05T09:45:24;23.10;99.90
18309;DHT22;9280;50.276;18.650;2022-07-05T09:48:11;23.10;99.90
18309;DHT22;9280;50.276;18.650;2022-07-05T09:51:10;23.20;99.90
18309;DHT22;9280;50.276;18.650;2022-07-05T09:53:58;23.30;99.90
18309;DHT22;9280;50.276;18.650;2022-07-05T09:56:46;23.30;99.90
18309;DHT22;9280;50.276;18.650;2022-07-05T09:59:32;23.30;99.90
18309;DHT22;9280;50.276;18.650;2022-07-05T10:02:33;23.50;99.90
18309;DHT22;9280;50.276;18.650;2022-07-05T10:05:20;23.70;99.90
18309;DHT22;9280;50.276;18.650;2022-07-05T10:08:06;23.70;99.90
18309;DHT22;9280;50.276;18.650;2022-07-05T10:10:53;23.60;99.90
18309;DHT22;9280;50.276;18.650;2022-07-05T10:13:40;23.50;99.90
18309;DHT22;9280;50.276;18.650;2022-07-05T10:16:26;23.50;99.90
18309;DHT22;9280;50.276;18.650;2022-07-05T10:19:17;23.50;99.90
18309;DHT22;9280;50.276;18.650;2022-07-05T10:22:05;23.30;99.90
18309;DHT22;9280;50.276;18.650;2022-07-05T10:24:51;23.30;99.90
18309;DHT22;9280;50.276;18.650;2022-07-05T10:27:39;23.20;99.90
18309;DHT22;9280;50.276;18.650;2022-07-05T10:30:26;23.20;99.90
18309;DHT22;9280;50.276;18.650;2022-07-05T10:33:13;23.00;99.90
18309;DHT22;9280;50.276;18.650;2022-07-05T10:36:01;22.80;99.90
18309;DHT22;9280;50.276;18.650;2022-07-05T10:38:48;22.20;99.90
18309;DHT22;9280;50.276;18.650;2022-07-05T10:41:35;21.30;99.90
18309;DHT22;9280;50.276;18.650;2022-07-05T10:44:29;21.10;99.90
18309;DHT22;9280;50.276;18.650;2022-07-05T10:47:16;21.00;99.90
18309;DHT22;9280;50.276;18.650;2022-07-05T10:50:04;21.10;99.90
18309;DHT22;9280;50.276;18.650;2022-07-05T10:53:02;20.80;99.90
18309;DHT22;9280;50.276;18.650;2022-07-05T10:55:54;20.80;99.90
18309;DHT22;9280;50.276;18.650;2022-07-05T10:58:41;20.60;99.90
18309;DHT22;9280;50.276;18.650;2022-07-05T11:01:35;20.90;99.90
18309;DHT22;9280;50.276;18.650;2022-07-05T11:04:28;20.90;99.90
18309;DHT22;9280;50.276;18.650;2022-07-05T11:07:58;20.80;99.90
18309;DHT22;9280;50.276;18.650;2022-07-05T11:11:10;20.70;99.90
18309;DHT22;9280;50.276;18.650;2022-07-05T11:13:58;20.90;99.90
18309;DHT22;9280;50.276;18.650;2022-07-05T11:16:44;21.00;99.90
18309;DHT22;9280;50.276;18.650;2022-07-05T11:19:30;21.10;99.90
18309;DHT22;9280;50.276;18.650;2022-07-05T11:22:17;21.00;99.90
18309;DHT22;9280;50.276;18.650;2022-07-05T11:25:05;21.00;99.90
18309;DHT22;9280;50.276;18.650;2022-07-05T11:28:17;20.50;99.90
18309;DHT22;9280;50.276;18.650;2022-07-05T11:31:04;20.40;99.90
18309;DHT22;9280;50.276;18.650;2022-07-05T11:33:50;20.50;99.90
18309;DHT22;9280;50.276;18.650;2022-07-05T11:36:39;20.70;99.90
18309;DHT22;9280;50.276;18.650;2022-07-05T11:39:25;20.70;99.90
18309;DHT22;9280;50.276;18.650;2022-07-05T11:42:14;20.80;99.90
18309;DHT22;9280;50.276;18.650;2022-07-05T11:45:07;21.00;99.90
18309;DHT22;9280;50.276;18.650;2022-07-05T11:47:54;21.00;99.90
18309;DHT22;9280;50.276;18.650;2022-07-05T11:50:42;20.90;99.90
18309;DHT22;9280;50.276;18.650;2022-07-05T11:53:31;21.00;99.90
18309;DHT22;9280;50.276;18.650;2022-07-05T11:56:17;20.90;99.90
18309;DHT22;9280;50.276;18.650;2022-07-05T11:59:17;20.80;99.90
18309;DHT22;9280;50.276;18.650;2022-07-05T12:02:04;20.90;99.90
18309;DHT22;9280;50.276;18.650;2022-07-05T12:04:51;21.00;99.90
18309;DHT22;9280;50.276;18.650;2022-07-05T12:07:37;21.00;99.90
18309;DHT22;9280;50.276;18.650;2022-07-05T12:10:25;21.00;99.90
18309;DHT22;9280;50.276;18.650;2022-07-05T12:13:28;20.70;99.90
18309;DHT22;9280;50.276;18.650;2022-07-05T12:16:14;20.40;99.90
18309;DHT22;9280;50.276;18.650;2022-07-05T12:19:02;20.50;99.90
18309;DHT22;9280;50.276;18.650;2022-07-05T12:21:52;20.60;99.90
18309;DHT22;9280;50.276;18.650;2022-07-05T12:24:39;20.70;99.90
18309;DHT22;9280;50.276;18.650;2022-07-05T12:27:28;20.70;99.90
18309;DHT22;9280;50.276;18.650;2022-07-05T12:30:15;20.50;99.90
18309;DHT22;9280;50.276;18.650;2022-07-05T12:33:03;20.50;99.90
18309;DHT22;9280;50.276;18.650;2022-07-05T12:35:51;20.40;99.90
18309;DHT22;9280;50.276;18.650;2022-07-05T12:38:37;20.30;99.90
18309;DHT22;9280;50.276;18.650;2022-07-05T12:41:23;20.30;99.90
18309;DHT22;9280;50.276;18.650;2022-07-05T12:44:09;20.30;99.90
18309;DHT22;9280;50.276;18.650;2022-07-05T12:47:03;20.20;99.90
18309;DHT22;9280;50.276;18.650;2022-07-05T12:49:53;20.00;99.90
18309;DHT22;9280;50.276;18.650;2022-07-05T12:55:36;20.00;99.90
18309;DHT22;9280;50.276;18.650;2022-07-05T12:58:47;20.20;99.90
18309;DHT22;9280;50.276;18.650;2022-07-05T13:01:38;20.30;99.90
18309;DHT22;9280;50.276;18.650;2022-07-05T13:04:24;20.40;99.90
18309;DHT22;9280;50.276;18.650;2022-07-05T13:07:10;20.60;99.90
18309;DHT22;9280;50.276;18.650;2022-07-05T13:10:14;20.70;99.90
18309;DHT22;9280;50.276;18.650;2022-07-05T13:13:02;20.90;99.90
18309;DHT22;9280;50.276;18.650;2022-07-05T13:15:48;21.00;99.90
18309;DHT22;9280;50.276;18.650;2022-07-05T13:18:34;21.10;99.90
18309;DHT22;9280;50.276;18.650;2022-07-05T13:21:20;21.20;99.90
18309;DHT22;9280;50.276;18.650;2022-07-05T13:24:06;21.10;99.90
18309;DHT22;9280;50.276;18.650;2022-07-05T13:26:53;21.10;99.90
18309;DHT22;9280;50.276;18.650;2022-07-05T13:29:40;21.10;99.90
18309;DHT22;9280;50.276;18.650;2022-07-05T13:32:26;21.10;99.90
18309;DHT22;9280;50.276;18.650;2022-07-05T13:35:12;21.00;99.90
18309;DHT22;9280;50.276;18.650;2022-07-05T13:37:58;21.10;99.90
18309;DHT22;9280;50.276;18.650;2022-07-05T13:40:45;20.90;99.90
18309;DHT22;9280;50.276;18.650;2022-07-05T13:43:31;21.00;99.90
18309;DHT22;9280;50.276;18.650;2022-07-05T13:46:18;20.80;99.90
18309;DHT22;9280;50.276;18.650;2022-07-05T13:49:05;20.70;99.90
18309;DHT22;9280;50.276;18.650;2022-07-05T13:51:51;20.40;99.90
18309;DHT22;9280;50.276;18.650;2022-07-05T13:54:37;20.40;99.90
18309;DHT22;9280;50.276;18.650;2022-07-05T13:57:23;20.30;99.90
18309;DHT22;9280;50.276;18.650;2022-07-05T14:00:10;20.40;99.90
18309;DHT22;9280;50.276;18.650;2022-07-05T14:02:58;20.40;99.90
18309;DHT22;9280;50.276;18.650;2022-07-05T14:05:44;20.40;99.90
18309;DHT22;9280;50.276;18.650;2022-07-05T14:08:30;20.40;99.90
18309;DHT22;9280;50.276;18.650;2022-07-05T14:11:16;20.30;99.90
18309;DHT22;9280;50.276;18.650;2022-07-05T14:14:02;20.20;99.90
18309;DHT22;9280;50.276;18.650;2022-07-05T14:16:48;20.10;99.90
18309;DHT22;9280;50.276;18.650;2022-07-05T14:19:35;20.00;99.90
18309;DHT22;9280;50.276;18.650;2022-07-05T14:22:22;19.90;99.90
18309;DHT22;9280;50.276;18.650;2022-07-05T14:25:08;19.90;99.90
18309;DHT22;9280;50.276;18.650;2022-07-05T14:27:54;19.90;99.90
18309;DHT22;9280;50.276;18.650;2022-07-05T14:30:42;19.90;99.90
18309;DHT22;9280;50.276;18.650;2022-07-05T14:33:29;19.90;99.90
18309;DHT22;9280;50.276;18.650;2022-07-05T14:36:17;19.90;99.90
18309;DHT22;9280;50.276;18.650;2022-07-05T14:39:04;19.80;99.90
18309;DHT22;9280;50.276;18.650;2022-07-05T14:41:50;19.80;99.90
18309;DHT22;9280;50.276;18.650;2022-07-05T14:44:36;19.50;99.90
18309;DHT22;9280;50.276;18.650;2022-07-05T14:47:22;19.50;99.90
18309;DHT22;9280;50.276;18.650;2022-07-05T14:50:11;19.40;99.90
18309;DHT22;9280;50.276;18.650;2022-07-05T14:52:58;19.40;99.90
18309;DHT22;9280;50.276;18.650;2022-07-05T14:55:50;19.20;99.90
18309;DHT22;9280;50.276;18.650;2022-07-05T14:58:36;19.10;99.90
18309;DHT22;9280;50.276;18.650;2022-07-05T15:01:22;19.20;99.90
18309;DHT22;9280;50.276;18.650;2022-07-05T15:04:08;19.30;99.90
18309;DHT22;9280;50.276;18.650;2022-07-05T15:06:53;19.40;99.90
18309;DHT22;9280;50.276;18.650;2022-07-05T15:09:41;19.40;99.90
18309;DHT22;9280;50.276;18.650;2022-07-05T15:12:27;19.40;99.90
18309;DHT22;9280;50.276;18.650;2022-07-05T15:15:13;19.20;99.90
18309;DHT22;9280;50.276;18.650;2022-07-05T15:18:00;19.20;99.90
18309;DHT22;9280;50.276;18.650;2022-07-05T15:20:46;19.20;99.90
18309;DHT22;9280;50.276;18.650;2022-07-05T15:23:33;19.30;99.90
18309;DHT22;9280;50.276;18.650;2022-07-05T15:26:20;19.30;99.90
18309;DHT22;9280;50.276;18.650;2022-07-05T15:29:07;19.20;99.90
18309;DHT22;9280;50.276;18.650;2022-07-05T15:31:53;19.30;99.90
18309;DHT22;9280;50.276;18.650;2022-07-05T15:34:39;19.30;99.90
18309;DHT22;9280;50.276;18.650;2022-07-05T15:37:25;19.30;99.90
18309;DHT22;9280;50.276;18.650;2022-07-05T15:40:12;19.20;99.90
18309;DHT22;9280;50.276;18.650;2022-07-05T15:42:59;19.30;99.90
18309;DHT22;9280;50.276;18.650;2022-07-05T15:45:46;19.30;99.90
18309;DHT22;9280;50.276;18.650;2022-07-05T15:48:32;19.30;99.90
18309;DHT22;9280;50.276;18.650;2022-07-05T15:51:19;19.20;99.90
18309;DHT22;9280;50.276;18.650;2022-07-05T15:54:05;19.10;99.90
18309;DHT22;9280;50.276;18.650;2022-07-05T15:56:51;19.10;99.90
18309;DHT22;9280;50.276;18.650;2022-07-05T15:59:39;18.90;99.90
18309;DHT22;9280;50.276;18.650;2022-07-05T16:02:25;18.90;99.90
18309;DHT22;9280;50.276;18.650;2022-07-05T16:05:11;18.80;99.90
18309;DHT22;9280;50.276;18.650;2022-07-05T16:07:57;18.50;99.90
18309;DHT22;9280;50.276;18.650;2022-07-05T16:10:43;18.40;99.90
18309;DHT22;9280;50.276;18.650;2022-07-05T16:13:29;18.30;99.90
18309;DHT22;9280;50.276;18.650;2022-07-05T16:16:17;18.20;99.90
18309;DHT22;9280;50.276;18.650;2022-07-05T16:19:03;18.30;99.90
18309;DHT22;9280;50.276;18.650;2022-07-05T16:21:50;18.30;99.90
18309;DHT22;9280;50.276;18.650;2022-07-05T16:24:36;18.20;99.90
18309;DHT22;9280;50.276;18.650;2022-07-05T16:27:22;18.20;99.90
18309;DHT22;9280;50.276;18.650;2022-07-05T16:30:09;18.20;99.90
18309;DHT22;9280;50.276;18.650;2022-07-05T16:32:57;18.10;99.90
18309;DHT22;9280;50.276;18.650;2022-07-05T16:35:43;18.10;99.90
18309;DHT22;9280;50.276;18.650;2022-07-05T16:38:29;17.90;99.90
18309;DHT22;9280;50.276;18.650;2022-07-05T16:41:17;17.80;99.90
18309;DHT22;9280;50.276;18.650;2022-07-05T16:44:03;17.70;99.90
18309;DHT22;9280;50.276;18.650;2022-07-05T16:46:49;17.70;99.90
18309;DHT22;9280;50.276;18.650;2022-07-05T16:49:37;17.60;99.90
18309;DHT22;9280;50.276;18.650;2022-07-05T16:52:23;17.60;99.90
18309;DHT22;9280;50.276;18.650;2022-07-05T16:55:10;17.60;99.90
18309;DHT22;9280;50.276;18.650;2022-07-05T16:57:55;17.50;99.90
18309;DHT22;9280;50.276;18.650;2022-07-05T17:00:42;17.40;99.90
18309;DHT22;9280;50.276;18.650;2022-07-05T17:03:27;17.40;99.90
18309;DHT22;9280;50.276;18.650;2022-07-05T17:06:16;17.40;99.90
18309;DHT22;9280;50.276;18.650;2022-07-05T17:09:02;17.30;99.90
18309;DHT22;9280;50.276;18.650;2022-07-05T17:11:48;17.30;99.90
18309;DHT22;9280;50.276;18.650;2022-07-05T17:14:34;17.30;99.90
18309;DHT22;9280;50.276;18.650;2022-07-05T17:17:20;17.30;99.90
18309;DHT22;9280;50.276;18.650;2022-07-05T17:20:07;17.20;99.90
18309;DHT22;9280;50.276;18.650;2022-07-05T17:22:54;17.20;99.90
18309;DHT22;9280;50.276;18.650;2022-07-05T17:25:40;17.20;99.90
18309;DHT22;9280;50.276;18.650;2022-07-05T17:28:26;17.20;99.90
18309;DHT22;9280;50.276;18.650;2022-07-05T17:31:12;17.20;99.90
18309;DHT22;9280;50.276;18.650;2022-07-05T17:33:59;17.20;99.90
18309;DHT22;9280;50.276;18.650;2022-07-05T17:36:46;17.30;99.90
18309;DHT22;9280;50.276;18.650;2022-07-05T17:39:33;17.20;99.90
18309;DHT22;9280;50.276;18.650;2022-07-05T17:42:19;17.10;99.90